Spelter City, Oklahoma
Current Conditions -  °F | °C
As of 1:35 AM on Sunday 23 Nov 2014 (Local Time) from KOKM Reporting Station
Haze Haze  
Wind Chill: 55°   Ceiling: 500
Heat Index: 55°   Visibility: 5mi
Dew Point: 55°   Wind: 12mph
Humidity: 99%   Direction: 100°E
Pressure: 29.63"   Gusts: NA
Location:  35.4729°N, 95.9709°W
Report Text: KOKM 230735Z AUTO 10010KT 5SM BR OVC005 13/13 A2963 RMK AO2 T01270125
Loading
Personal Weather Stations






























Interactive Weather Map New forecast layout! Learn more

10-Day Weather Forecast

Advertisements
Track Severe Weather on mobile